createdAt,value
2022-12-17T00:00:13.694Z,99862.69
2022-12-17T00:02:58.780Z,99851.53
2022-12-17T00:05:43.821Z,99857.47
2022-12-17T00:08:30.358Z,99855.66
2022-12-17T00:11:17.288Z,99855.66
2022-12-17T00:14:02.479Z,99860.88
2022-12-17T00:16:47.514Z,99844.47
2022-12-17T00:19:32.445Z,99842.53
2022-12-17T00:22:17.431Z,99839.38
2022-12-17T00:25:02.319Z,99840.84
2022-12-17T00:27:47.269Z,99861.84
2022-12-17T00:30:32.474Z,99861.00
2022-12-17T00:33:17.457Z,99878.13
2022-12-17T00:36:02.667Z,99859.44
2022-12-17T00:38:48.038Z,99854.56
2022-12-17T00:41:33.098Z,99827.22
2022-12-17T00:44:18.222Z,99824.69
2022-12-17T00:47:03.576Z,99834.25
2022-12-17T00:49:49.002Z,99832.22
2022-12-17T00:52:33.846Z,99826.25
2022-12-17T00:55:18.726Z,99847.63
2022-12-17T00:58:03.709Z,99859.16
2022-12-17T01:00:49.307Z,99869.63
2022-12-17T01:03:34.883Z,99887.94
2022-12-17T01:06:24.173Z,99891.59
2022-12-17T01:09:09.411Z,99904.97
2022-12-17T01:11:56.628Z,99906.91
2022-12-17T01:14:42.800Z,99917.59
2022-12-17T01:17:28.304Z,99940.69
2022-12-17T01:20:13.298Z,99947.34
2022-12-17T01:22:58.183Z,99942.72
2022-12-17T01:25:43.788Z,99933.66
2022-12-17T01:28:36.365Z,99939.97
2022-12-17T01:31:21.603Z,99946.03
2022-12-17T01:34:06.626Z,99953.44
2022-12-17T01:36:52.138Z,99960.59
2022-12-17T01:39:37.284Z,99968.41
2022-12-17T01:42:22.903Z,99965.25
2022-12-17T01:45:12.745Z,99961.94
2022-12-17T01:48:11.514Z,99971.44
2022-12-17T01:50:58.240Z,99978.50
2022-12-17T01:53:44.961Z,99978.41
2022-12-17T01:56:32.510Z,99974.97
2022-12-17T01:59:17.763Z,99977.06
2022-12-17T02:02:03.252Z,99980.31
2022-12-17T02:04:48.263Z,99981.41
2022-12-17T02:07:39.717Z,99978.84
2022-12-17T02:10:48.080Z,99976.91
2022-12-17T02:13:43.102Z,99985.66
2022-12-17T02:16:34.510Z,99994.53
2022-12-17T02:19:55.401Z,99989.53
2022-12-17T02:23:10.605Z,99987.59
2022-12-17T02:26:03.706Z,99987.59
2022-12-17T02:28:48.759Z,99984.13
2022-12-17T02:31:34.443Z,99981.66
2022-12-17T02:34:19.661Z,99976.69
2022-12-17T02:37:05.138Z,99967.56
2022-12-17T02:39:50.175Z,99970.13
2022-12-17T02:42:35.194Z,99967.91
2022-12-17T02:45:20.063Z,99977.63
2022-12-17T02:48:05.516Z,99978.84
2022-12-17T02:50:50.700Z,99986.50
2022-12-17T02:53:35.954Z,99993.25
2022-12-17T02:56:21.345Z,99992.47
2022-12-17T02:59:06.729Z,100002.38
2022-12-17T03:01:52.095Z,100009.38
2022-12-17T03:04:37.348Z,100011.50
2022-12-17T03:07:22.181Z,100016.66
2022-12-17T03:10:07.583Z,100020.88
2022-12-17T03:12:52.394Z,100048.13
2022-12-17T03:15:37.832Z,100049.47
2022-12-17T03:18:23.126Z,100049.88
2022-12-17T03:21:11.805Z,100049.44
2022-12-17T03:23:57.334Z,100037.50
2022-12-17T03:26:42.723Z,100033.59
2022-12-17T03:29:27.801Z,100030.75
2022-12-17T03:32:12.602Z,100038.94
2022-12-17T03:34:57.569Z,100031.25
2022-12-17T03:37:42.559Z,100037.94
2022-12-17T03:40:30.546Z,100038.03
2022-12-17T03:43:15.695Z,100042.75
2022-12-17T03:46:01.113Z,100049.25
2022-12-17T03:48:46.569Z,100049.66
2022-12-17T03:51:31.649Z,100043.63
2022-12-17T03:54:16.661Z,100038.88
2022-12-17T03:57:01.775Z,100043.66
2022-12-17T03:59:46.892Z,100046.84
2022-12-17T04:02:32.550Z,100056.38
2022-12-17T04:05:20.297Z,100048.78
2022-12-17T04:08:06.037Z,100053.84
2022-12-17T04:10:51.053Z,100058.75
2022-12-17T04:13:40.697Z,100053.44
2022-12-17T04:16:26.993Z,100041.81
2022-12-17T04:19:12.376Z,100048.75
2022-12-17T04:21:57.484Z,100056.00
2022-12-17T04:24:43.059Z,100043.34
2022-12-17T04:27:27.942Z,100038.56
2022-12-17T04:30:12.815Z,100038.97
2022-12-17T04:32:57.692Z,100036.63
2022-12-17T04:35:42.857Z,100045.91
2022-12-17T04:38:27.786Z,100051.94
2022-12-17T04:41:12.641Z,100066.31
2022-12-17T04:44:02.795Z,100084.09
2022-12-17T04:46:48.648Z,100103.09
2022-12-17T04:49:33.721Z,100109.84
2022-12-17T04:52:18.696Z,100105.47
2022-12-17T04:55:03.563Z,100095.81
2022-12-17T04:57:49.044Z,100100.78
2022-12-17T05:00:34.596Z,100113.75
2022-12-17T05:03:30.860Z,100115.00
2022-12-17T05:06:16.194Z,100127.91
2022-12-17T05:09:01.671Z,100129.59
2022-12-17T05:11:47.215Z,100123.25
2022-12-17T05:14:32.097Z,100136.25
2022-12-17T05:17:17.034Z,100122.66
2022-12-17T05:20:02.153Z,100123.94
2022-12-17T05:22:47.490Z,100122.31
2022-12-17T05:25:32.958Z,100132.81
2022-12-17T05:28:18.197Z,100139.50
2022-12-17T05:31:10.552Z,100137.00
2022-12-17T05:33:55.501Z,100147.06
2022-12-17T05:36:40.953Z,100155.87
2022-12-17T05:39:26.445Z,100163.97
2022-12-17T05:42:11.916Z,100177.59
2022-12-17T05:44:57.115Z,100181.00
2022-12-17T05:47:42.154Z,100183.28
2022-12-17T05:50:27.595Z,100187.09
2022-12-17T05:53:13.001Z,100195.00
2022-12-17T05:55:58.182Z,100187.28
2022-12-17T05:58:43.253Z,100193.81
2022-12-17T06:01:28.489Z,100194.59
2022-12-17T06:04:14.113Z,100197.34
2022-12-17T06:06:59.188Z,100195.75
2022-12-17T06:09:44.051Z,100210.13
2022-12-17T06:12:29.142Z,100222.19
2022-12-17T06:15:14.175Z,100228.91
2022-12-17T06:17:59.450Z,100225.41
2022-12-17T06:20:45.034Z,100222.06
2022-12-17T06:23:30.185Z,100233.13
2022-12-17T06:26:15.438Z,100246.00
2022-12-17T06:29:00.992Z,100254.97
2022-12-17T06:31:46.657Z,100266.63
2022-12-17T06:34:31.905Z,100263.87
2022-12-17T06:37:17.051Z,100270.66
2022-12-17T06:40:02.189Z,100268.97
2022-12-17T06:42:47.564Z,100275.56
2022-12-17T06:45:32.704Z,100271.47
2022-12-17T06:48:24.653Z,100285.97
2022-12-17T06:51:12.309Z,100279.03
2022-12-17T06:53:57.435Z,100287.56
2022-12-17T06:56:42.493Z,100297.69
2022-12-17T06:59:27.533Z,100285.72
2022-12-17T07:02:12.680Z,100298.63
2022-12-17T07:04:57.947Z,100313.59
2022-12-17T07:07:42.885Z,100320.47
2022-12-17T07:10:28.440Z,100316.91
2022-12-17T07:13:13.582Z,100322.03
2022-12-17T07:15:58.925Z,100330.22
2022-12-17T07:18:43.992Z,100332.50
2022-12-17T07:21:29.473Z,100321.59
2022-12-17T07:24:14.526Z,100328.53
2022-12-17T07:26:59.462Z,100342.59
2022-12-17T07:29:44.471Z,100339.28
2022-12-17T07:32:29.564Z,100350.31
2022-12-17T07:35:14.517Z,100355.03
2022-12-17T07:37:59.816Z,100358.75
2022-12-17T07:40:45.121Z,100359.44
2022-12-17T07:43:31.013Z,100354.56
2022-12-17T07:46:16.319Z,100364.84
2022-12-17T07:49:01.668Z,100369.19
2022-12-17T07:51:46.783Z,100379.22
2022-12-17T07:54:32.135Z,100379.84
2022-12-17T07:57:17.471Z,100381.16
2022-12-17T08:00:02.759Z,100398.59
2022-12-17T08:02:48.024Z,100400.47
2022-12-17T08:05:33.184Z,100394.59
2022-12-17T08:08:26.270Z,100400.72
2022-12-17T08:11:11.654Z,100407.66
2022-12-17T08:13:56.973Z,100402.16
2022-12-17T08:16:42.672Z,100402.06
2022-12-17T08:19:28.242Z,100406.22
2022-12-17T08:22:13.429Z,100412.81
2022-12-17T08:24:58.841Z,100417.41
2022-12-17T08:27:43.870Z,100418.53
2022-12-17T08:30:29.462Z,100419.56
2022-12-17T08:33:14.661Z,100433.09
2022-12-17T08:35:59.827Z,100441.75
2022-12-17T08:38:44.674Z,100443.09
2022-12-17T08:41:29.514Z,100456.34
2022-12-17T08:44:14.479Z,100464.78
2022-12-17T08:46:59.325Z,100461.59
2022-12-17T08:49:44.114Z,100464.37
2022-12-17T08:52:28.990Z,100457.44
2022-12-17T08:55:14.460Z,100457.91
2022-12-17T08:57:59.463Z,100475.03
2022-12-17T09:00:44.421Z,100471.34
2022-12-17T09:03:29.871Z,100479.81
2022-12-17T09:06:14.702Z,100468.59
2022-12-17T09:09:00.125Z,100471.69
2022-12-17T09:11:46.230Z,100481.47
2022-12-17T09:14:31.545Z,100488.53
2022-12-17T09:17:16.649Z,100485.38
2022-12-17T09:20:01.706Z,100480.63
2022-12-17T09:22:46.822Z,100497.09
2022-12-17T09:25:31.842Z,100496.66
2022-12-17T09:28:19.827Z,100504.31
2022-12-17T09:31:05.101Z,100505.44
2022-12-17T09:34:03.966Z,100505.16
2022-12-17T09:36:51.330Z,100511.87
2022-12-17T09:39:36.718Z,100517.25
2022-12-17T09:42:25.276Z,100507.22
2022-12-17T09:45:15.717Z,100508.69
2022-12-17T09:48:04.092Z,100496.72
2022-12-17T09:50:49.312Z,100501.34
2022-12-17T09:53:43.412Z,100500.72
2022-12-17T09:56:29.388Z,100505.25
2022-12-17T09:59:14.630Z,100499.62
2022-12-17T10:01:59.940Z,100504.41
2022-12-17T10:04:52.457Z,100506.44
2022-12-17T10:07:40.116Z,100497.66
2022-12-17T10:10:54.766Z,100512.34
2022-12-17T10:13:41.383Z,100527.38
2022-12-17T10:16:42.715Z,100522.13
2022-12-17T10:19:55.639Z,100536.69
2022-12-17T10:22:40.891Z,100552.16
2022-12-17T10:25:28.507Z,100556.13
2022-12-17T10:28:13.745Z,100556.50
2022-12-17T10:30:58.916Z,100576.34
2022-12-17T10:33:44.201Z,100576.25
2022-12-17T10:36:42.490Z,100579.94
2022-12-17T10:39:36.740Z,100575.84
2022-12-17T10:42:21.887Z,100583.63
2022-12-17T10:45:06.847Z,100596.28
2022-12-17T10:47:52.449Z,100610.59
2022-12-17T10:50:41.769Z,100618.09
2022-12-17T10:53:40.958Z,100622.53
2022-12-17T10:56:26.131Z,100616.31
2022-12-17T10:59:12.023Z,100616.31
2022-12-17T11:02:00.464Z,100611.53
2022-12-17T11:04:46.713Z,100613.28
2022-12-17T11:07:55.968Z,100626.50
2022-12-17T11:10:42.978Z,100648.19
2022-12-17T11:13:31.283Z,100639.16
2022-12-17T11:16:17.127Z,100659.22
2022-12-17T11:19:17.164Z,100671.34
2022-12-17T11:22:08.071Z,100680.03
2022-12-17T11:25:16.294Z,100669.62
2022-12-17T11:28:03.785Z,100668.41
2022-12-17T11:30:48.965Z,100668.31
2022-12-17T11:33:39.676Z,100670.50
2022-12-17T11:36:41.654Z,100658.66
2022-12-17T11:39:43.034Z,100673.34
2022-12-17T11:42:49.494Z,100687.53
2022-12-17T11:45:37.802Z,100680.41
2022-12-17T11:48:35.461Z,100691.03
2022-12-17T11:51:46.075Z,100695.50
2022-12-17T11:54:34.084Z,100709.13
2022-12-17T11:57:39.473Z,100719.00
2022-12-17T12:00:35.040Z,100727.00
2022-12-17T12:03:51.679Z,100720.69
2022-12-17T12:06:39.689Z,100734.47
2022-12-17T12:09:46.882Z,100740.94
2022-12-17T12:13:23.223Z,100748.91
2022-12-17T12:16:11.081Z,100743.88
2022-12-17T12:19:05.488Z,100744.75
2022-12-17T12:21:53.592Z,100752.34
2022-12-17T12:25:04.497Z,100753.62
2022-12-17T12:28:17.047Z,100742.25
2022-12-17T12:31:12.371Z,100749.06
2022-12-17T12:34:03.095Z,100763.75
2022-12-17T12:36:48.302Z,100773.84
2022-12-17T12:39:36.963Z,100751.53
2022-12-17T12:42:23.378Z,100735.66
2022-12-17T12:45:30.872Z,100753.03
2022-12-17T12:48:23.785Z,100751.41
2022-12-17T12:51:35.556Z,100760.09
2022-12-17T12:54:21.720Z,100765.87
2022-12-17T12:57:06.945Z,100782.19
2022-12-17T12:59:53.182Z,100793.69
2022-12-17T13:02:46.373Z,100774.16
2022-12-17T13:05:33.848Z,100795.06
2022-12-17T13:08:20.854Z,100798.91
2022-12-17T13:10:47.606Z,100803.94
2022-12-17T13:13:36.765Z,100812.25
2022-12-17T13:16:32.908Z,100803.59
2022-12-17T13:19:19.084Z,100808.38
2022-12-17T13:21:45.644Z,100822.63
2022-12-17T13:24:13.039Z,100835.75
2022-12-17T13:26:39.480Z,100836.03
2022-12-17T13:29:24.349Z,100844.78
2022-12-17T13:32:15.513Z,100844.78
2022-12-17T13:35:02.400Z,100840.28
2022-12-17T13:37:35.831Z,100847.44
2022-12-17T13:40:17.621Z,100858.72
2022-12-17T13:42:45.403Z,100862.31
2022-12-17T13:45:16.730Z,100878.53
2022-12-17T13:47:43.346Z,100895.47
2022-12-17T13:50:33.872Z,100891.25
2022-12-17T13:53:10.140Z,100898.13
2022-12-17T13:55:37.994Z,100886.56
2022-12-17T13:58:04.586Z,100880.66
2022-12-17T14:00:31.302Z,100894.13
2022-12-17T14:02:58.091Z,100897.47
2022-12-17T14:05:34.434Z,100906.91
2022-12-17T14:08:02.242Z,100908.00
2022-12-17T14:10:29.310Z,100911.19
2022-12-17T14:13:06.148Z,100910.44
2022-12-17T14:15:33.254Z,100894.06
2022-12-17T14:17:59.954Z,100920.19
2022-12-17T14:20:29.075Z,100921.34
2022-12-17T14:22:59.140Z,100941.94
2022-12-17T14:25:39.182Z,100942.22
2022-12-17T14:28:07.520Z,100943.34
2022-12-17T14:30:46.209Z,100939.16
2022-12-17T14:33:31.500Z,100944.09
2022-12-17T14:36:21.741Z,100951.28
2022-12-17T14:38:59.377Z,100960.13
2022-12-17T14:41:45.714Z,100969.00
2022-12-17T14:44:24.663Z,100965.41
2022-12-17T14:46:52.242Z,100979.94
2022-12-17T14:49:19.690Z,100970.94
2022-12-17T14:51:46.345Z,100984.94
2022-12-17T14:54:15.893Z,100989.13
2022-12-17T14:56:42.477Z,100983.56
2022-12-17T14:59:45.158Z,100999.47
2022-12-17T15:02:11.853Z,101002.72
2022-12-17T15:04:38.679Z,101005.88
2022-12-17T15:07:05.972Z,101012.09
2022-12-17T15:09:36.810Z,101019.66
2022-12-17T15:12:03.601Z,101024.44
2022-12-17T15:14:30.173Z,101036.78
2022-12-17T15:16:58.936Z,101031.41
2022-12-17T15:19:25.621Z,101047.78
2022-12-17T15:21:52.231Z,101045.41
2022-12-17T15:24:20.184Z,101054.47
2022-12-17T15:26:46.799Z,101060.41
2022-12-17T15:29:13.674Z,101070.09
2022-12-17T15:31:40.410Z,101068.53
2022-12-17T15:34:07.053Z,101073.81
2022-12-17T15:36:33.644Z,101072.75
2022-12-17T15:39:00.307Z,101080.00
2022-12-17T15:41:45.834Z,101087.31
2022-12-17T15:44:13.161Z,101092.25
2022-12-17T15:46:39.850Z,101083.25
2022-12-17T15:49:06.490Z,101094.19
2022-12-17T15:51:33.055Z,101090.56
2022-12-17T15:53:59.723Z,101095.16
2022-12-17T15:56:27.723Z,101098.28
2022-12-17T15:58:58.056Z,101096.19
2022-12-17T16:01:24.989Z,101102.41
2022-12-17T16:03:51.748Z,101098.19
2022-12-17T16:06:18.426Z,101094.66
2022-12-17T16:08:45.023Z,101107.59
2022-12-17T16:11:12.619Z,101108.31
2022-12-17T16:13:39.279Z,101106.16
2022-12-17T16:16:06.794Z,101115.72
2022-12-17T16:18:33.586Z,101120.38
2022-12-17T16:21:04.378Z,101120.09
2022-12-17T16:23:30.953Z,101121.72
2022-12-17T16:26:01.906Z,101107.47
2022-12-17T16:28:28.824Z,101121.72
2022-12-17T16:30:58.500Z,101120.75
2022-12-17T16:33:25.136Z,101132.13
2022-12-17T16:35:54.923Z,101136.25
2022-12-17T16:38:22.138Z,101149.66
2022-12-17T16:40:48.725Z,101152.13
2022-12-17T16:43:15.688Z,101151.56
2022-12-17T16:45:47.613Z,101159.44
2022-12-17T16:48:14.291Z,101170.31
2022-12-17T16:50:40.867Z,101165.72
2022-12-17T16:53:07.462Z,101175.97
2022-12-17T16:55:34.060Z,101191.75
2022-12-17T16:58:00.828Z,101190.22
2022-12-17T17:00:27.519Z,101192.63
2022-12-17T17:02:54.272Z,101185.03
2022-12-17T17:05:20.927Z,101193.06
2022-12-17T17:07:47.457Z,101195.87
2022-12-17T17:10:14.050Z,101201.22
2022-12-17T17:12:40.611Z,101193.88
2022-12-17T17:15:07.882Z,101202.19
2022-12-17T17:17:54.112Z,101202.00
2022-12-17T17:20:21.063Z,101209.47
2022-12-17T17:22:47.654Z,101196.97
2022-12-17T17:25:14.379Z,101197.41
2022-12-17T17:27:41.001Z,101202.09
2022-12-17T17:30:08.088Z,101208.31
2022-12-17T17:32:34.741Z,101203.66
2022-12-17T17:35:01.363Z,101218.00
2022-12-17T17:37:27.975Z,101216.09
2022-12-17T17:39:54.550Z,101222.94
2022-12-17T17:42:21.133Z,101227.69
2022-12-17T17:44:48.789Z,101232.03
2022-12-17T17:47:16.109Z,101238.25
2022-12-17T17:49:42.690Z,101237.19
2022-12-17T17:52:10.643Z,101242.34
2022-12-17T17:54:39.462Z,101249.25
2022-12-17T17:57:06.306Z,101255.69
2022-12-17T17:59:34.322Z,101256.03
2022-12-17T18:02:01.550Z,101256.22
2022-12-17T18:04:28.260Z,101259.38
2022-12-17T18:09:44.168Z,101265.16
2022-12-17T18:12:29.351Z,101261.03
2022-12-17T18:17:43.102Z,101278.00
2022-12-17T18:20:10.408Z,101285.25
2022-12-17T18:22:37.274Z,101281.91
2022-12-17T18:25:04.100Z,101290.63
2022-12-17T18:27:30.697Z,101295.91
2022-12-17T18:29:57.265Z,101303.75
2022-12-17T18:32:23.849Z,101306.72
2022-12-17T18:34:50.481Z,101314.28
2022-12-17T18:37:17.137Z,101319.38
2022-12-17T18:39:43.881Z,101318.22
2022-12-17T18:42:28.826Z,101329.31
2022-12-17T18:44:55.416Z,101330.00
2022-12-17T18:47:22.065Z,101339.69
2022-12-17T18:49:48.676Z,101350.78
2022-12-17T18:52:17.346Z,101349.63
2022-12-17T18:54:44.365Z,101353.94
2022-12-17T18:57:10.944Z,101365.91
2022-12-17T18:59:38.539Z,101376.84
2022-12-17T19:02:05.308Z,101384.50
2022-12-17T19:04:33.062Z,101374.84
2022-12-17T19:06:59.848Z,101387.69
2022-12-17T19:09:37.059Z,101385.94
2022-12-17T19:12:05.250Z,101400.00
2022-12-17T19:14:31.809Z,101400.00
2022-12-17T19:16:59.544Z,101404.78
2022-12-17T19:19:26.291Z,101406.06
2022-12-17T19:21:56.190Z,101413.06
2022-12-17T19:24:23.218Z,101406.47
2022-12-17T19:26:49.833Z,101410.97
2022-12-17T19:29:16.977Z,101418.72
2022-12-17T19:31:43.860Z,101414.50
2022-12-17T19:34:12.517Z,101423.00
2022-12-17T19:36:39.371Z,101421.97
2022-12-17T19:39:07.483Z,101441.59
2022-12-17T19:41:34.383Z,101439.75
2022-12-17T19:44:02.436Z,101447.81
2022-12-17T19:46:30.241Z,101450.91
2022-12-17T19:48:57.358Z,101461.25
2022-12-17T19:51:25.265Z,101454.25
2022-12-17T19:53:51.879Z,101458.53
2022-12-17T19:56:26.031Z,101463.81
2022-12-17T19:58:57.326Z,101465.34
2022-12-17T20:01:34.633Z,101466.50
2022-12-17T20:04:04.969Z,101479.84
2022-12-17T20:06:32.602Z,101484.31
2022-12-17T20:08:59.576Z,101480.47
2022-12-17T20:11:36.019Z,101486.81
2022-12-17T20:14:02.822Z,101491.44
2022-12-17T20:16:30.202Z,101486.97
2022-12-17T20:18:58.615Z,101498.25
2022-12-17T20:21:25.191Z,101493.69
2022-12-17T20:23:51.844Z,101496.91
2022-12-17T20:26:18.648Z,101499.09
2022-12-17T20:28:45.564Z,101507.31
2022-12-17T20:31:12.615Z,101511.16
2022-12-17T20:33:39.215Z,101510.56
2022-12-17T20:36:06.379Z,101519.13
2022-12-17T20:38:33.123Z,101531.25
2022-12-17T20:40:59.912Z,101536.25
2022-12-17T20:43:27.077Z,101537.19
2022-12-17T20:45:57.116Z,101548.72
2022-12-17T20:48:27.109Z,101542.66
2022-12-17T20:50:54.519Z,101548.13
2022-12-17T20:53:23.251Z,101549.41
2022-12-17T20:56:00.040Z,101560.78
2022-12-17T20:58:26.671Z,101566.31
2022-12-17T21:00:53.325Z,101577.78
2022-12-17T21:03:20.373Z,101574.22
2022-12-17T21:05:46.954Z,101575.28
2022-12-17T21:08:13.548Z,101593.09
2022-12-17T21:10:40.265Z,101593.34
2022-12-17T21:13:25.214Z,101600.16
2022-12-17T21:15:51.760Z,101610.63
2022-12-17T21:18:18.333Z,101617.13
2022-12-17T21:21:00.671Z,101616.16
2022-12-17T21:23:27.975Z,101626.13
2022-12-17T21:26:04.143Z,101627.59
2022-12-17T21:28:36.326Z,101631.22
2022-12-17T21:31:06.849Z,101638.84
2022-12-17T21:33:33.758Z,101635.81
2022-12-17T21:36:07.612Z,101640.75
2022-12-17T21:38:34.795Z,101640.50
2022-12-17T21:41:12.850Z,101639.44
2022-12-17T21:43:40.052Z,101642.81
2022-12-17T21:46:07.754Z,101641.53
2022-12-17T21:48:41.384Z,101641.34
2022-12-17T21:51:10.482Z,101643.97
2022-12-17T21:53:41.911Z,101649.75
2022-12-17T21:56:18.456Z,101654.84
2022-12-17T21:58:45.849Z,101648.34
2022-12-17T22:01:18.800Z,101659.16
2022-12-17T22:03:56.387Z,101655.72
2022-12-17T22:06:25.217Z,101667.94
2022-12-17T22:08:56.704Z,101659.25
2022-12-17T22:11:25.727Z,101668.25
2022-12-17T22:14:12.715Z,101665.13
2022-12-17T22:16:47.218Z,101674.63
2022-12-17T22:19:21.461Z,101681.66
2022-12-17T22:21:49.793Z,101685.97
2022-12-17T22:24:18.422Z,101695.94
2022-12-17T22:26:45.174Z,101695.22
2022-12-17T22:29:11.981Z,101693.16
2022-12-17T22:31:57.162Z,101707.78
2022-12-17T22:35:50.432Z,101706.06
2022-12-17T22:40:57.032Z,101701.56
2022-12-17T22:44:28.607Z,101698.06
2022-12-17T22:44:44.079Z,101708.13
2022-12-17T22:45:49.276Z,101708.78
2022-12-17T22:48:15.939Z,101720.38
2022-12-17T22:50:47.152Z,101722.41
2022-12-17T22:53:27.983Z,101720.66
2022-12-17T22:55:54.879Z,101724.56
2022-12-17T22:58:22.331Z,101727.75
2022-12-17T23:00:48.915Z,101731.91
2022-12-17T23:03:16.483Z,101739.59
2022-12-17T23:05:43.155Z,101742.19
2022-12-17T23:08:09.790Z,101742.03
2022-12-17T23:10:36.368Z,101736.31
2022-12-17T23:13:02.943Z,101750.22
2022-12-17T23:15:31.236Z,101753.72
2022-12-17T23:17:59.340Z,101765.31
2022-12-17T23:20:26.386Z,101767.94
2022-12-17T23:22:52.957Z,101762.16
2022-12-17T23:25:19.722Z,101761.12
2022-12-17T23:27:46.421Z,101769.19
2022-12-17T23:30:13.655Z,101768.06
2022-12-17T23:32:40.486Z,101774.72
2022-12-17T23:35:07.567Z,101779.22
2022-12-17T23:37:39.499Z,101783.31
2022-12-17T23:40:08.981Z,101794.12
2022-12-17T23:42:35.654Z,101788.59
2022-12-17T23:45:02.634Z,101792.63
2022-12-17T23:47:29.228Z,101795.38
2022-12-17T23:49:55.767Z,101806.53
2022-12-17T23:52:22.322Z,101810.53
2022-12-17T23:54:48.864Z,101814.09
2022-12-17T23:57:15.467Z,101810.63
2022-12-17T23:59:42.090Z,101815.91
